Search for airport 
image banner adimage banner adimage banner ad
image banner ad

7PA3 - Charles G Kalko

Located in Honesdale, United States

ICAO - 7PA3, IATA -

Data provided by Airmate  

General information

Coordinates: N41°42'20" W75°17'17"
Elevation is 1400 feet MSL.
Magnetic variation is -12° East
View others Airports in Pennsylvania

Operational data

Special qualification required
Current time UTC:
Current local time:
Weather at : KMSV - Sullivan County Intl ( 41 km )
METAR: KMSV 091228Z AUTO 29007KT 10SM BKN010 06/04 A3005 RMK AO2 CIG 007V011
View NOTAMs / SUP AIP / TFR affecting this airport [VIEW]
Communications frequencies: [VIEW]

Runways:

RWY identifierQFULength (ft)Width (ft)SurfaceLDA (ft)
18400050ASPH
36400050ASPH

Airport contact information

Address: Honesdale United States

Satellite view of 7PA3